createdAt,value
2023-05-17T00:00:55.594Z,9.80
2023-05-17T00:03:22.329Z,9.90
2023-05-17T00:05:49.025Z,9.90
2023-05-17T00:08:15.846Z,10.00
2023-05-17T00:10:43.281Z,10.00
2023-05-17T00:13:10.029Z,10.10
2023-05-17T00:15:36.737Z,10.10
2023-05-17T00:18:04.850Z,10.10
2023-05-17T00:20:31.701Z,10.20
2023-05-17T00:22:58.429Z,10.20
2023-05-17T00:25:25.074Z,10.20
2023-05-17T00:27:51.807Z,10.30
2023-05-17T00:30:18.594Z,10.30
2023-05-17T00:32:46.801Z,10.30
2023-05-17T00:35:14.047Z,10.30
2023-05-17T00:37:40.831Z,10.30
2023-05-17T00:40:08.271Z,10.30
2023-05-17T00:42:34.966Z,10.30
2023-05-17T00:45:01.732Z,10.30
2023-05-17T00:47:28.524Z,10.30
2023-05-17T00:49:55.652Z,10.30
2023-05-17T00:52:22.405Z,10.30
2023-05-17T00:54:50.723Z,10.20
2023-05-17T00:57:17.697Z,10.20
2023-05-17T00:59:47.770Z,10.20
2023-05-17T01:02:14.428Z,10.10
2023-05-17T01:04:41.695Z,10.00
2023-05-17T01:07:09.853Z,10.00
2023-05-17T01:09:37.217Z,9.90
2023-05-17T01:12:48.314Z,9.90
2023-05-17T01:15:19.686Z,9.80
2023-05-17T01:17:57.939Z,9.80
2023-05-17T01:20:33.593Z,9.70
2023-05-17T01:23:30.322Z,9.70
2023-05-17T01:26:19.257Z,9.60
2023-05-17T01:28:52.043Z,9.50
2023-05-17T01:31:20.087Z,9.50
2023-05-17T01:33:47.434Z,9.40
2023-05-17T01:36:14.204Z,9.40
2023-05-17T01:38:41.129Z,9.30
2023-05-17T01:41:49.725Z,9.20
2023-05-17T01:44:23.456Z,9.10
2023-05-17T01:46:53.755Z,9.00
2023-05-17T01:49:31.444Z,8.90
2023-05-17T01:52:19.283Z,8.80
2023-05-17T01:54:47.500Z,8.70
2023-05-17T01:57:16.632Z,8.60
2023-05-17T01:59:45.271Z,8.60
2023-05-17T02:02:12.358Z,8.60
2023-05-17T02:04:39.097Z,8.50
2023-05-17T02:07:05.968Z,8.50
2023-05-17T02:09:32.614Z,8.40
2023-05-17T02:11:59.284Z,8.40
2023-05-17T02:14:26.006Z,8.40
2023-05-17T02:16:52.731Z,8.40
2023-05-17T02:19:19.501Z,8.30
2023-05-17T02:21:46.268Z,8.30
2023-05-17T02:24:12.929Z,8.20
2023-05-17T02:26:42.871Z,8.20
2023-05-17T02:29:12.758Z,8.20
2023-05-17T02:31:39.461Z,8.20
2023-05-17T02:34:06.234Z,8.20
2023-05-17T02:36:33.170Z,8.20
2023-05-17T02:39:00.000Z,8.20
2023-05-17T02:41:26.897Z,8.10
2023-05-17T02:43:53.538Z,8.10
2023-05-17T02:46:20.307Z,8.10
2023-05-17T02:48:47.072Z,8.10
2023-05-17T02:51:13.783Z,8.10
2023-05-17T02:53:40.420Z,8.10
2023-05-17T02:56:07.384Z,8.10
2023-05-17T02:58:34.211Z,8.00
2023-05-17T03:01:00.888Z,8.10
2023-05-17T03:03:27.624Z,8.00
2023-05-17T03:05:54.402Z,8.00
2023-05-17T03:08:21.029Z,8.00
2023-05-17T03:10:47.709Z,8.00
2023-05-17T03:13:14.349Z,8.00
2023-05-17T03:15:41.176Z,8.00
2023-05-17T03:18:07.871Z,8.00
2023-05-17T03:20:34.621Z,8.00
2023-05-17T03:23:01.299Z,7.90
2023-05-17T03:25:28.134Z,7.90
2023-05-17T03:27:55.059Z,7.90
2023-05-17T03:30:21.781Z,7.90
2023-05-17T03:32:48.529Z,7.90
2023-05-17T03:35:15.252Z,7.90
2023-05-17T03:37:41.913Z,7.90
2023-05-17T03:40:09.004Z,7.90
2023-05-17T03:42:36.953Z,7.80
2023-05-17T03:45:04.825Z,7.80
2023-05-17T03:47:31.526Z,7.80
2023-05-17T03:49:58.201Z,7.80
2023-05-17T03:52:24.996Z,7.80
2023-05-17T03:54:51.743Z,7.80
2023-05-17T03:57:19.628Z,7.70
2023-05-17T03:59:46.716Z,7.80
2023-05-17T04:02:16.196Z,7.80
2023-05-17T04:04:49.999Z,7.80
2023-05-17T04:07:17.654Z,7.80
2023-05-17T04:09:44.675Z,7.80
2023-05-17T04:12:11.449Z,7.80
2023-05-17T04:14:38.848Z,7.80
2023-05-17T04:17:05.608Z,7.90
2023-05-17T04:19:32.600Z,7.80
2023-05-17T04:21:59.413Z,7.80
2023-05-17T04:24:26.110Z,7.80
2023-05-17T04:26:52.802Z,7.80
2023-05-17T04:29:19.477Z,7.80
2023-05-17T04:31:48.859Z,7.80
2023-05-17T04:34:15.729Z,7.80
2023-05-17T04:36:42.466Z,7.80
2023-05-17T04:39:09.177Z,7.80
2023-05-17T04:41:35.961Z,7.80
2023-05-17T04:44:03.541Z,7.80
2023-05-17T04:46:30.202Z,7.80
2023-05-17T04:48:57.104Z,7.80
2023-05-17T04:51:24.271Z,7.70
2023-05-17T04:53:51.088Z,7.80
2023-05-17T04:56:18.368Z,7.80
2023-05-17T04:58:45.103Z,7.80
2023-05-17T05:01:12.050Z,7.90
2023-05-17T05:03:38.861Z,7.90
2023-05-17T05:06:05.644Z,8.00
2023-05-17T05:08:33.833Z,8.10
2023-05-17T05:11:00.527Z,8.20
2023-05-17T05:13:27.215Z,8.30
2023-05-17T05:15:53.863Z,7.40
2023-05-17T05:18:20.798Z,8.40
2023-05-17T05:20:50.819Z,8.50
2023-05-17T05:23:18.627Z,8.60
2023-05-17T05:25:45.716Z,8.70
2023-05-17T05:28:12.415Z,8.80
2023-05-17T05:30:39.760Z,8.90
2023-05-17T05:33:06.550Z,8.90
2023-05-17T05:35:33.286Z,9.00
2023-05-17T05:38:00.142Z,9.10
2023-05-17T05:40:27.926Z,9.20
2023-05-17T05:42:55.478Z,9.30
2023-05-17T05:45:22.383Z,9.40
2023-05-17T05:47:49.524Z,9.60
2023-05-17T05:50:16.400Z,9.70
2023-05-17T05:52:43.163Z,9.80
2023-05-17T05:55:10.094Z,9.90
2023-05-17T05:57:36.969Z,10.00
2023-05-17T06:00:04.931Z,10.20
2023-05-17T06:02:31.631Z,10.30
2023-05-17T06:04:59.677Z,10.50
2023-05-17T06:07:26.444Z,10.70
2023-05-17T06:09:53.202Z,10.80
2023-05-17T06:12:20.660Z,11.00
2023-05-17T06:14:47.403Z,11.20
2023-05-17T06:17:14.068Z,11.40
2023-05-17T06:19:40.872Z,11.80
2023-05-17T06:22:07.588Z,12.20
2023-05-17T06:24:34.285Z,12.80
2023-05-17T06:27:01.446Z,13.70
2023-05-17T06:29:28.210Z,15.00
2023-05-17T06:31:56.795Z,16.40
2023-05-17T06:34:23.562Z,17.80
2023-05-17T06:36:50.237Z,19.10
2023-05-17T06:39:17.004Z,20.30
2023-05-17T06:41:44.191Z,21.00
2023-05-17T06:44:10.897Z,21.20
2023-05-17T06:46:37.722Z,21.10
2023-05-17T06:49:04.422Z,20.60
2023-05-17T06:51:31.535Z,20.10
2023-05-17T06:53:58.211Z,19.40
2023-05-17T06:56:25.074Z,19.00
2023-05-17T06:58:51.781Z,18.60
2023-05-17T07:01:18.804Z,18.20
2023-05-17T07:03:45.639Z,17.90
2023-05-17T07:06:12.413Z,17.60
2023-05-17T07:08:40.473Z,17.40
2023-05-17T07:11:07.210Z,17.20
2023-05-17T07:13:33.878Z,17.10
2023-05-17T07:16:00.789Z,16.90
2023-05-17T07:18:27.559Z,16.70
2023-05-17T07:20:54.419Z,16.60
2023-05-17T07:23:21.097Z,16.50
2023-05-17T07:25:47.810Z,16.60
2023-05-17T07:28:14.618Z,16.70
2023-05-17T07:30:42.468Z,16.60
2023-05-17T07:33:09.201Z,16.70
2023-05-17T07:35:35.959Z,16.80
2023-05-17T07:38:02.748Z,17.10
2023-05-17T07:40:29.524Z,17.30
2023-05-17T07:42:56.274Z,17.50
2023-05-17T07:45:22.936Z,17.60
2023-05-17T07:47:49.753Z,17.70
2023-05-17T07:50:16.648Z,17.80
2023-05-17T07:52:43.370Z,17.90
2023-05-17T07:55:10.324Z,17.90
2023-05-17T07:57:37.052Z,17.90
2023-05-17T08:00:04.319Z,17.70
2023-05-17T08:02:31.050Z,17.60
2023-05-17T08:04:57.796Z,17.50
2023-05-17T08:07:24.543Z,17.30
2023-05-17T08:09:51.493Z,17.20
2023-05-17T08:12:18.168Z,17.10
2023-05-17T08:14:44.858Z,17.00
2023-05-17T08:17:11.561Z,16.90
2023-05-17T08:19:39.019Z,16.80
2023-05-17T08:22:05.885Z,16.70
2023-05-17T08:24:32.581Z,16.70
2023-05-17T08:26:59.400Z,16.70
2023-05-17T08:29:26.075Z,16.80
2023-05-17T08:31:54.273Z,16.90
2023-05-17T08:34:20.974Z,17.00
2023-05-17T08:36:47.836Z,17.00
2023-05-17T08:39:14.592Z,17.00
2023-05-17T08:41:41.373Z,17.00
2023-05-17T08:44:08.322Z,17.00
2023-05-17T08:46:36.956Z,17.00
2023-05-17T08:49:06.033Z,16.90
2023-05-17T08:51:32.794Z,16.90
2023-05-17T08:53:59.939Z,17.10
2023-05-17T08:56:28.629Z,17.20
2023-05-17T08:58:57.997Z,17.20
2023-05-17T09:01:27.018Z,17.30
2023-05-17T09:03:55.138Z,17.40
2023-05-17T09:06:23.496Z,17.40
2023-05-17T09:08:58.460Z,17.50
2023-05-17T09:11:30.619Z,17.60
2023-05-17T09:14:01.804Z,17.60
2023-05-17T09:16:30.242Z,17.60
2023-05-17T09:18:58.131Z,17.60
2023-05-17T09:21:25.751Z,17.80
2023-05-17T09:24:04.840Z,18.00
2023-05-17T09:26:40.797Z,18.20
2023-05-17T09:29:12.470Z,18.30
2023-05-17T09:31:40.117Z,18.40
2023-05-17T09:34:08.117Z,18.50
2023-05-17T09:36:42.083Z,18.60
2023-05-17T09:39:12.701Z,18.50
2023-05-17T09:41:48.443Z,18.40
2023-05-17T09:44:15.760Z,18.40
2023-05-17T09:46:47.793Z,18.30
2023-05-17T09:49:16.004Z,18.20
2023-05-17T09:51:45.488Z,18.20
2023-05-17T09:54:12.425Z,18.20
2023-05-17T09:56:39.688Z,18.00
2023-05-17T09:59:15.063Z,18.00
2023-05-17T10:01:44.925Z,18.10
2023-05-17T10:04:12.643Z,18.20
2023-05-17T10:09:13.436Z,18.60
2023-05-17T10:11:43.034Z,19.00
2023-05-17T10:14:23.205Z,19.30
2023-05-17T10:16:51.716Z,19.60
2023-05-17T10:19:20.824Z,20.00
2023-05-17T10:21:49.940Z,20.50
2023-05-17T10:24:17.604Z,20.90
2023-05-17T10:26:44.879Z,21.30
2023-05-17T10:29:11.617Z,21.90
2023-05-17T10:31:41.122Z,22.10
2023-05-17T10:34:10.028Z,22.20
2023-05-17T10:36:37.860Z,22.30
2023-05-17T10:39:09.763Z,22.10
2023-05-17T10:41:38.089Z,21.80
2023-05-17T10:44:08.020Z,21.60
2023-05-17T10:46:36.902Z,21.40
2023-05-17T10:49:04.072Z,21.10
2023-05-17T10:51:36.628Z,21.00
2023-05-17T10:54:03.391Z,20.90
2023-05-17T10:56:33.596Z,20.70
2023-05-17T10:59:29.836Z,20.70
2023-05-17T11:02:04.242Z,20.60
2023-05-17T11:04:34.262Z,20.80
2023-05-17T11:07:21.866Z,21.30
2023-05-17T11:09:56.324Z,21.50
2023-05-17T11:12:33.682Z,21.80
2023-05-17T11:15:01.555Z,22.30
2023-05-17T11:17:37.490Z,22.80
2023-05-17T11:20:16.367Z,23.20
2023-05-17T11:22:58.612Z,23.40
2023-05-17T11:25:29.698Z,23.30
2023-05-17T11:27:57.796Z,23.00
2023-05-17T11:30:28.974Z,23.10
2023-05-17T11:33:01.013Z,23.00
2023-05-17T11:35:38.483Z,23.10
2023-05-17T11:38:20.112Z,22.90
2023-05-17T11:40:53.154Z,22.80
2023-05-17T11:43:22.924Z,22.60
2023-05-17T11:45:54.822Z,22.30
2023-05-17T11:48:26.679Z,22.30
2023-05-17T11:50:56.648Z,22.30
2023-05-17T11:53:25.134Z,21.90
2023-05-17T11:55:53.044Z,21.80
2023-05-17T11:58:24.143Z,21.70
2023-05-17T12:00:58.856Z,21.60
2023-05-17T12:03:26.312Z,21.40
2023-05-17T12:06:04.292Z,21.20
2023-05-17T12:08:34.217Z,21.10
2023-05-17T12:11:01.983Z,20.90
2023-05-17T12:13:30.358Z,21.20
2023-05-17T12:15:59.719Z,21.50
2023-05-17T12:18:44.000Z,21.60
2023-05-17T12:21:13.382Z,21.70
2023-05-17T12:23:46.811Z,21.90
2023-05-17T12:26:16.648Z,22.40
2023-05-17T12:28:58.136Z,22.70
2023-05-17T12:31:32.841Z,23.40
2023-05-17T12:34:02.251Z,23.70
2023-05-17T12:36:30.582Z,24.00
2023-05-17T12:38:57.678Z,24.40
2023-05-17T12:41:26.378Z,24.60
2023-05-17T12:43:57.199Z,24.80
2023-05-17T12:46:32.118Z,24.80
2023-05-17T12:49:09.638Z,24.40
2023-05-17T12:51:44.526Z,24.10
2023-05-17T12:54:31.523Z,23.80
2023-05-17T12:56:58.482Z,23.80
2023-05-17T12:59:26.090Z,24.10
2023-05-17T13:01:56.835Z,24.30
2023-05-17T13:04:34.435Z,24.50
2023-05-17T13:07:03.524Z,24.60
2023-05-17T13:09:32.373Z,24.60
2023-05-17T13:12:01.906Z,24.80
2023-05-17T13:14:34.322Z,24.60
2023-05-17T13:17:02.437Z,24.40
2023-05-17T13:19:29.406Z,24.30
2023-05-17T13:21:56.223Z,24.00
2023-05-17T13:24:22.953Z,23.80
2023-05-17T13:26:49.606Z,23.60
2023-05-17T13:29:17.411Z,23.60
2023-05-17T13:31:44.285Z,23.30
2023-05-17T13:34:11.108Z,23.10
2023-05-17T13:36:37.956Z,23.10
2023-05-17T13:39:04.645Z,23.00
2023-05-17T13:41:31.337Z,22.70
2023-05-17T13:43:58.018Z,22.40
2023-05-17T13:46:24.752Z,22.20
2023-05-17T13:48:52.471Z,22.20
2023-05-17T13:51:19.294Z,22.40
2023-05-17T13:53:45.990Z,22.50
2023-05-17T13:56:12.739Z,22.80
2023-05-17T13:58:39.362Z,23.10
2023-05-17T14:01:06.498Z,23.20
2023-05-17T14:03:33.235Z,23.30
2023-05-17T14:06:00.062Z,23.30
2023-05-17T14:08:26.787Z,23.30
2023-05-17T14:10:53.452Z,23.30
2023-05-17T14:13:20.076Z,23.30
2023-05-17T14:15:46.749Z,23.10
2023-05-17T14:18:13.537Z,23.00
2023-05-17T14:20:40.274Z,22.90
2023-05-17T14:23:07.017Z,22.70
2023-05-17T14:25:33.757Z,22.60
2023-05-17T14:28:00.429Z,22.50
2023-05-17T14:30:27.090Z,22.50
2023-05-17T14:32:53.860Z,22.30
2023-05-17T14:35:20.642Z,22.30
2023-05-17T14:37:47.380Z,22.20
2023-05-17T14:40:14.165Z,22.20
2023-05-17T14:42:40.891Z,22.20
2023-05-17T14:45:08.207Z,22.20
2023-05-17T14:47:36.783Z,22.00
2023-05-17T14:50:04.337Z,21.80
2023-05-17T14:52:31.345Z,21.70
2023-05-17T14:54:58.373Z,21.80
2023-05-17T14:57:25.408Z,21.70
2023-05-17T14:59:52.443Z,21.70
2023-05-17T15:02:19.613Z,21.70
2023-05-17T15:04:46.393Z,21.60
2023-05-17T15:07:13.817Z,21.70
2023-05-17T15:09:41.620Z,21.70
2023-05-17T15:12:14.117Z,21.70
2023-05-17T15:14:41.011Z,21.80
2023-05-17T15:17:08.060Z,21.70
2023-05-17T15:19:34.970Z,21.70
2023-05-17T15:22:01.950Z,21.70
2023-05-17T15:24:29.537Z,21.60
2023-05-17T15:26:56.322Z,21.50
2023-05-17T15:29:22.982Z,21.40
2023-05-17T15:31:49.631Z,21.30
2023-05-17T15:34:16.446Z,21.20
2023-05-17T15:36:43.184Z,21.20
2023-05-17T15:39:10.480Z,21.10
2023-05-17T15:41:37.432Z,20.90
2023-05-17T15:44:05.520Z,21.00
2023-05-17T15:46:32.494Z,21.00
2023-05-17T15:48:59.279Z,20.60
2023-05-17T15:51:26.220Z,20.40
2023-05-17T15:53:53.023Z,20.30
2023-05-17T15:56:21.022Z,20.20
2023-05-17T15:58:49.293Z,20.10
2023-05-17T16:01:16.275Z,20.00
2023-05-17T16:03:42.951Z,19.90
2023-05-17T16:06:09.770Z,19.70
2023-05-17T16:08:36.620Z,19.60
2023-05-17T16:11:03.377Z,19.60
2023-05-17T16:13:30.738Z,19.60
2023-05-17T16:15:58.921Z,19.60
2023-05-17T16:18:26.103Z,19.70
2023-05-17T16:21:03.790Z,19.70
2023-05-17T16:23:30.640Z,19.60
2023-05-17T16:25:57.922Z,19.60
2023-05-17T16:28:24.751Z,19.70
2023-05-17T16:30:51.842Z,19.60
2023-05-17T16:33:20.511Z,19.60
2023-05-17T16:35:48.919Z,19.50
2023-05-17T16:38:16.564Z,19.40
2023-05-17T16:40:43.350Z,19.20
2023-05-17T16:43:11.091Z,19.10
2023-05-17T16:45:37.753Z,19.00
2023-05-17T16:48:04.544Z,19.00
2023-05-17T16:50:31.521Z,19.00
2023-05-17T16:52:58.481Z,19.00
2023-05-17T16:55:25.235Z,18.90
2023-05-17T16:57:51.941Z,18.90
2023-05-17T17:00:20.053Z,18.90
2023-05-17T17:02:46.788Z,18.00
2023-05-17T17:05:13.560Z,18.70
2023-05-17T17:07:40.252Z,18.70
2023-05-17T17:10:07.309Z,18.70
2023-05-17T17:12:34.030Z,18.70
2023-05-17T17:15:00.775Z,18.50
2023-05-17T17:17:27.466Z,18.40
2023-05-17T17:19:54.145Z,18.30
2023-05-17T17:22:20.821Z,18.10
2023-05-17T17:24:47.531Z,18.10
2023-05-17T17:27:14.204Z,18.10
2023-05-17T17:29:41.075Z,18.10
2023-05-17T17:32:08.347Z,18.10
2023-05-17T17:34:35.103Z,18.00
2023-05-17T17:37:01.753Z,17.90
2023-05-17T17:39:28.403Z,17.80
2023-05-17T17:41:55.163Z,17.70
2023-05-17T17:44:21.878Z,17.60
2023-05-17T17:46:48.938Z,17.50
2023-05-17T17:49:15.735Z,17.40
2023-05-17T17:51:42.434Z,17.30
2023-05-17T17:54:09.115Z,17.30
2023-05-17T17:56:36.537Z,17.20
2023-05-17T17:59:03.266Z,17.10
2023-05-17T18:01:32.436Z,17.00
2023-05-17T18:03:59.211Z,17.00
2023-05-17T18:06:26.200Z,17.00
2023-05-17T18:08:52.855Z,16.90
2023-05-17T18:11:19.510Z,16.90
2023-05-17T18:13:46.540Z,16.80
2023-05-17T18:16:13.401Z,16.80
2023-05-17T18:18:40.761Z,16.70
2023-05-17T18:21:08.913Z,16.60
2023-05-17T18:23:35.894Z,16.50
2023-05-17T18:26:03.187Z,16.50
2023-05-17T18:28:41.400Z,16.40
2023-05-17T18:31:08.890Z,16.40
2023-05-17T18:33:35.592Z,16.20
2023-05-17T18:36:02.453Z,16.20
2023-05-17T18:38:29.116Z,16.10
2023-05-17T18:40:55.845Z,16.10
2023-05-17T18:43:22.500Z,16.00
2023-05-17T18:45:49.186Z,16.00
2023-05-17T18:48:16.133Z,15.90
2023-05-17T18:50:43.007Z,15.80
2023-05-17T18:53:09.934Z,15.70
2023-05-17T18:55:36.638Z,15.60
2023-05-17T18:58:03.344Z,15.60
2023-05-17T19:00:30.151Z,15.50
2023-05-17T19:02:57.099Z,15.40
2023-05-17T19:05:23.837Z,15.30
2023-05-17T19:07:50.564Z,15.30
2023-05-17T19:10:18.323Z,15.20
2023-05-17T19:12:45.774Z,15.20
2023-05-17T19:15:12.793Z,15.10
2023-05-17T19:17:39.602Z,15.00
2023-05-17T19:20:07.018Z,15.00
2023-05-17T19:22:35.712Z,14.90
2023-05-17T19:25:02.573Z,14.90
2023-05-17T19:27:29.396Z,14.80
2023-05-17T19:29:56.083Z,14.70
2023-05-17T19:32:22.884Z,14.60
2023-05-17T19:34:49.906Z,14.60
2023-05-17T19:37:16.912Z,14.50
2023-05-17T19:39:43.778Z,14.50
2023-05-17T19:42:10.873Z,14.40
2023-05-17T19:44:37.555Z,14.30
2023-05-17T19:47:04.698Z,14.30
2023-05-17T19:49:31.508Z,14.20
2023-05-17T19:52:00.768Z,14.10
2023-05-17T19:54:30.605Z,14.10
2023-05-17T19:56:59.549Z,14.00
2023-05-17T19:59:26.272Z,14.00
2023-05-17T20:01:52.998Z,14.00
2023-05-17T20:04:19.736Z,13.90
2023-05-17T20:06:46.472Z,13.80
2023-05-17T20:09:13.243Z,13.80
2023-05-17T20:11:40.036Z,13.70
2023-05-17T20:14:06.869Z,13.70
2023-05-17T20:16:33.575Z,13.60
2023-05-17T20:19:00.981Z,14.40
2023-05-17T20:21:29.326Z,13.50
2023-05-17T20:24:03.835Z,13.50
2023-05-17T20:26:36.008Z,13.40
2023-05-17T20:29:07.391Z,13.30
2023-05-17T20:31:36.122Z,13.30
2023-05-17T20:34:04.012Z,13.20
2023-05-17T20:36:31.506Z,13.20
2023-05-17T20:38:58.430Z,13.10
2023-05-17T20:41:25.126Z,13.10
2023-05-17T20:43:52.505Z,13.00
2023-05-17T20:46:19.264Z,12.90
2023-05-17T20:48:47.667Z,12.90
2023-05-17T20:51:15.381Z,12.80
2023-05-17T20:53:42.154Z,12.80
2023-05-17T20:56:09.121Z,12.70
2023-05-17T20:58:35.875Z,12.70
2023-05-17T21:01:02.693Z,12.60
2023-05-17T21:03:33.177Z,12.60
2023-05-17T21:06:05.287Z,12.60
2023-05-17T21:08:32.864Z,12.50
2023-05-17T21:11:00.350Z,12.50
2023-05-17T21:13:27.336Z,12.50
2023-05-17T21:15:54.877Z,12.40
2023-05-17T21:18:22.275Z,12.30
2023-05-17T21:20:50.829Z,12.20
2023-05-17T21:23:17.904Z,12.20
2023-05-17T21:25:44.611Z,12.20
2023-05-17T21:28:11.396Z,12.20
2023-05-17T21:30:38.133Z,12.10
2023-05-17T21:33:05.590Z,12.10
2023-05-17T21:35:32.548Z,12.10
2023-05-17T21:37:59.270Z,12.00
2023-05-17T21:40:26.244Z,11.90
2023-05-17T21:42:52.965Z,11.80
2023-05-17T21:45:19.724Z,11.80
2023-05-17T21:47:46.535Z,11.80
2023-05-17T21:50:13.345Z,11.70
2023-05-17T21:52:40.435Z,11.70
2023-05-17T21:55:07.786Z,11.70
2023-05-17T21:57:36.324Z,11.70
2023-05-17T22:00:05.119Z,11.60
2023-05-17T22:02:34.763Z,11.60
2023-05-17T22:05:01.852Z,11.50
2023-05-17T22:07:28.521Z,11.50
2023-05-17T22:09:55.226Z,11.50
2023-05-17T22:12:25.330Z,11.50
2023-05-17T22:14:54.129Z,11.50
2023-05-17T22:17:29.578Z,11.40
2023-05-17T22:20:03.141Z,11.40
2023-05-17T22:22:34.535Z,11.40
2023-05-17T22:25:01.569Z,11.40
2023-05-17T22:27:28.232Z,11.40
2023-05-17T22:29:54.917Z,11.30
2023-05-17T22:32:21.692Z,11.30
2023-05-17T22:34:49.097Z,11.30
2023-05-17T22:37:17.496Z,11.30
2023-05-17T22:39:44.222Z,11.20
2023-05-17T22:42:10.998Z,11.20
2023-05-17T22:44:37.693Z,11.20
2023-05-17T22:47:05.084Z,11.20
2023-05-17T22:49:35.684Z,11.10
2023-05-17T22:52:07.585Z,11.10
2023-05-17T22:54:37.953Z,11.00
2023-05-17T22:57:05.175Z,11.00
2023-05-17T22:59:33.082Z,11.00
2023-05-17T23:02:00.118Z,11.00
2023-05-17T23:04:27.324Z,10.90
2023-05-17T23:06:54.496Z,10.90
2023-05-17T23:09:22.149Z,10.90
2023-05-17T23:11:50.330Z,10.90
2023-05-17T23:14:17.581Z,10.80
2023-05-17T23:16:44.557Z,10.80
2023-05-17T23:19:11.341Z,10.80
2023-05-17T23:21:39.598Z,10.80
2023-05-17T23:24:08.004Z,10.80
2023-05-17T23:26:35.062Z,10.70
2023-05-17T23:29:03.496Z,10.70
2023-05-17T23:31:30.414Z,10.60
2023-05-17T23:33:57.207Z,10.60
2023-05-17T23:36:23.869Z,10.60
2023-05-17T23:38:50.561Z,10.50
2023-05-17T23:41:17.974Z,10.50
2023-05-17T23:43:45.174Z,10.50
2023-05-17T23:46:13.611Z,10.40
2023-05-17T23:48:40.378Z,10.40
2023-05-17T23:51:07.143Z,10.40
2023-05-17T23:53:34.266Z,10.40
2023-05-17T23:56:01.456Z,10.40
2023-05-17T23:58:28.124Z,10.40
